Time;durP1;ratioP1;P1;durP2;ratioP2;P2;SDS_P1;SDS_P2;PMS_P1;PMS_P2;Temp;Humidity;BMP_temperature;BMP_pressure;BME280_temperature;BME280_humidity;BME280_pressure;Samples;Min_cycle;Max_cycle;Signal;HPM_P1;HPM_P2
2021/12/14 00:01:25;;;;;;;12.33;7.40;;;;;;;;;;5043606;28;20422;-52
2021/12/14 00:03:52;;;;;;;13.97;8.43;;;;;;;;;;5038829;28;20533;-54
2021/12/14 00:06:19;;;;;;;18.63;8.10;;;;;;;;;;5041619;28;20428;-53
2021/12/14 00:08:55;;;;;;;14.00;7.97;;;;;;;;;;5043528;28;20549;-53
2021/12/14 00:11:51;;;;;;;14.27;8.17;;;;;;;;;;5022215;28;20430;-53
2021/12/14 00:16:46;;;;;;;13.00;8.27;;;;;;;;;;5040331;28;21064;-52
2021/12/14 00:19:12;;;;;;;15.17;8.50;;;;;;;;;;5045863;28;20438;-52
2021/12/14 00:21:42;;;;;;;17.93;10.40;;;;;;;;;;5021874;28;20431;-52
2021/12/14 00:24:09;;;;;;;15.40;8.80;;;;;;;;;;5047627;28;20553;-52
2021/12/14 00:26:46;;;;;;;17.90;10.30;;;;;;;;;;5007446;28;20596;-52
2021/12/14 00:29:17;;;;;;;15.53;8.80;;;;;;;;;;5045951;28;20483;-51
2021/12/14 00:31:43;;;;;;;12.30;8.03;;;;;;;;;;5039440;28;20423;-52
2021/12/14 00:34:09;;;;;;;17.50;8.50;;;;;;;;;;5046283;28;20449;-54
2021/12/14 00:36:36;;;;;;;15.27;8.97;;;;;;;;;;5038047;28;20837;-53
2021/12/14 00:39:04;;;;;;;21.60;8.67;;;;;;;;;;5045302;28;20517;-53
2021/12/14 00:41:33;;;;;;;15.53;8.60;;;;;;;;;;5021890;28;20436;-52
2021/12/14 00:43:59;;;;;;;15.63;8.53;;;;;;;;;;5042008;28;20455;-52
2021/12/14 00:46:25;;;;;;;15.83;8.27;;;;;;;;;;5039025;28;20443;-51
2021/12/14 00:48:52;;;;;;;17.70;10.00;;;;;;;;;;5042878;28;20470;-53
2021/12/14 00:51:21;;;;;;;17.23;10.40;;;;;;;;;;5033628;28;20525;-52
2021/12/14 00:53:48;;;;;;;16.90;9.70;;;;;;;;;;5034197;28;20452;-55
2021/12/14 00:56:14;;;;;;;17.70;9.80;;;;;;;;;;5021094;28;20440;-51
2021/12/14 00:59:19;;;;;;;15.90;8.90;;;;;;;;;;5032214;28;20434;-53
2021/12/14 01:01:47;;;;;;;14.70;10.70;;;;;;;;;;5038633;28;20430;-52
2021/12/14 01:04:18;;;;;;;13.27;9.07;;;;;;;;;;5039335;28;20423;-52
2021/12/14 01:06:45;;;;;;;14.67;9.10;;;;;;;;;;5043973;28;20835;-53
2021/12/14 01:09:15;;;;;;;17.47;8.63;;;;;;;;;;5025049;28;20466;-52
2021/12/14 01:11:45;;;;;;;13.53;7.90;;;;;;;;;;5058351;28;21001;-54
2021/12/14 01:14:38;;;;;;;14.30;7.40;;;;;;;;;;5020306;28;21248;-52
2021/12/14 01:17:11;;;;;;;18.73;9.80;;;;;;;;;;5021687;28;20480;-52
2021/12/14 01:19:38;;;;;;;13.67;8.93;;;;;;;;;;5045331;28;20407;-54
2021/12/14 01:22:24;;;;;;;13.60;7.93;;;;;;;;;;5040805;28;20476;-53
2021/12/14 01:27:27;;;;;;;20.40;8.87;;;;;;;;;;5015109;28;20450;-53
2021/12/14 01:29:55;;;;;;;15.20;7.50;;;;;;;;;;5040036;28;20551;-54
2021/12/14 01:32:25;;;;;;;18.60;8.07;;;;;;;;;;5016670;28;20476;-52
2021/12/14 01:34:51;;;;;;;21.97;10.03;;;;;;;;;;5040164;28;20439;-53
2021/12/14 01:37:21;;;;;;;15.50;7.90;;;;;;;;;;5036203;28;21869;-54
2021/12/14 01:40:01;;;;;;;17.73;8.77;;;;;;;;;;5039993;28;20476;-54
2021/12/14 01:42:28;;;;;;;16.13;7.80;;;;;;;;;;5033817;28;20434;-52
2021/12/14 01:45:01;;;;;;;21.13;8.57;;;;;;;;;;5040151;28;20838;-54
2021/12/14 01:47:29;;;;;;;14.17;8.93;;;;;;;;;;5017011;28;20431;-52
2021/12/14 01:49:55;;;;;;;14.00;8.53;;;;;;;;;;5038344;28;20501;-51
2021/12/14 01:52:23;;;;;;;20.93;9.53;;;;;;;;;;5013644;28;20836;-52
2021/12/14 01:54:51;;;;;;;20.50;9.63;;;;;;;;;;5062039;28;21153;-51
2021/12/14 01:57:19;;;;;;;17.07;9.47;;;;;;;;;;5021451;28;20438;-52
2021/12/14 01:59:45;;;;;;;21.80;8.73;;;;;;;;;;5038157;28;20976;-52
2021/12/14 02:04:45;;;;;;;12.30;7.27;;;;;;;;;;5037608;28;20460;-52
2021/12/14 02:07:12;;;;;;;18.70;8.73;;;;;;;;;;4989984;28;20435;-54
2021/12/14 02:09:38;;;;;;;19.47;9.50;;;;;;;;;;5035328;28;21489;-53
2021/12/14 02:12:09;;;;;;;15.83;9.37;;;;;;;;;;5013811;28;20434;-53
2021/12/14 02:14:35;;;;;;;21.60;10.63;;;;;;;;;;5040927;28;20482;-53
2021/12/14 02:17:02;;;;;;;12.60;7.83;;;;;;;;;;5027749;28;20492;-53
2021/12/14 02:19:29;;;;;;;17.20;8.47;;;;;;;;;;5043967;28;20440;-53
2021/12/14 02:21:55;;;;;;;18.27;9.20;;;;;;;;;;5026138;28;20951;-52
2021/12/14 02:24:22;;;;;;;16.60;10.10;;;;;;;;;;5042634;28;20967;-51
2021/12/14 02:26:48;;;;;;;18.13;8.70;;;;;;;;;;5040137;28;20431;-53
2021/12/14 02:29:26;;;;;;;17.67;9.50;;;;;;;;;;5043714;28;20491;-52
2021/12/14 02:31:53;;;;;;;20.30;8.20;;;;;;;;;;5026488;28;20442;-52
2021/12/14 02:34:19;;;;;;;16.53;7.23;;;;;;;;;;5043890;28;20939;-53
2021/12/14 02:36:47;;;;;;;16.23;8.20;;;;;;;;;;5062158;28;20430;-54
2021/12/14 02:39:46;;;;;;;19.33;8.67;;;;;;;;;;5043107;28;20525;-52
2021/12/14 02:42:11;;;;;;;18.77;9.03;;;;;;;;;;5026702;28;20441;-53
2021/12/14 02:44:37;;;;;;;18.23;8.43;;;;;;;;;;5046534;28;20470;-53
2021/12/14 02:47:10;;;;;;;16.07;7.97;;;;;;;;;;5040805;28;20767;-53
2021/12/14 02:49:40;;;;;;;19.87;9.10;;;;;;;;;;5044889;28;20520;-53
2021/12/14 02:52:07;;;;;;;15.47;7.80;;;;;;;;;;5037317;28;20446;-51
2021/12/14 02:54:37;;;;;;;15.90;8.13;;;;;;;;;;5044786;28;20566;-54
2021/12/14 02:57:04;;;;;;;18.17;8.10;;;;;;;;;;5054280;28;20479;-52
2021/12/14 02:59:32;;;;;;;14.50;7.60;;;;;;;;;;5044106;28;20423;-53
2021/12/14 03:02:04;;;;;;;18.47;7.83;;;;;;;;;;5038386;28;21405;-53
2021/12/14 03:04:33;;;;;;;17.90;7.10;;;;;;;;;;5064223;28;20442;-53
2021/12/14 03:07:00;;;;;;;16.63;7.30;;;;;;;;;;5014011;28;20431;-52
2021/12/14 03:09:37;;;;;;;14.97;7.97;;;;;;;;;;5044172;28;20963;-52
2021/12/14 03:12:06;;;;;;;14.77;7.60;;;;;;;;;;5023027;28;20446;-55
2021/12/14 03:14:32;;;;;;;15.83;9.00;;;;;;;;;;5043966;28;20440;-53
2021/12/14 03:17:00;;;;;;;16.13;8.23;;;;;;;;;;5037269;28;20451;-53
2021/12/14 03:19:26;;;;;;;9.07;6.30;;;;;;;;;;5042863;28;20523;-53
2021/12/14 03:21:52;;;;;;;14.40;6.47;;;;;;;;;;5037664;28;20443;-52
2021/12/14 03:24:22;;;;;;;10.53;6.50;;;;;;;;;;5044564;28;20441;-55
2021/12/14 03:26:51;;;;;;;13.53;6.37;;;;;;;;;;5026612;28;20458;-51
2021/12/14 03:29:23;;;;;;;10.67;5.93;;;;;;;;;;5059420;28;20478;-53
2021/12/14 03:31:50;;;;;;;14.23;6.20;;;;;;;;;;5031651;28;20441;-52
2021/12/14 03:34:18;;;;;;;9.53;5.23;;;;;;;;;;5042310;28;20434;-52
2021/12/14 03:36:51;;;;;;;11.63;5.17;;;;;;;;;;5044627;28;20431;-54
2021/12/14 03:39:23;;;;;;;9.47;5.97;;;;;;;;;;5041884;28;20446;-53
2021/12/14 03:41:59;;;;;;;8.40;4.30;;;;;;;;;;5042839;28;20435;-52
2021/12/14 03:44:25;;;;;;;8.60;4.50;;;;;;;;;;5045042;28;20833;-53
2021/12/14 03:46:55;;;;;;;8.50;5.87;;;;;;;;;;4993983;28;20430;-53
2021/12/14 03:49:22;;;;;;;10.27;5.47;;;;;;;;;;5041325;28;21004;-52
2021/12/14 03:51:49;;;;;;;6.67;4.67;;;;;;;;;;5038806;28;20423;-51
2021/12/14 03:54:18;;;;;;;7.87;4.60;;;;;;;;;;5042547;28;20423;-52
2021/12/14 03:56:45;;;;;;;6.30;3.70;;;;;;;;;;5033300;28;20465;-54
2021/12/14 03:59:16;;;;;;;5.63;3.93;;;;;;;;;;5045520;28;20442;-53
2021/12/14 04:01:43;;;;;;;5.50;3.73;;;;;;;;;;5022359;28;20442;-52
2021/12/14 04:04:29;;;;;;;6.03;3.77;;;;;;;;;;5025271;28;20442;-52
2021/12/14 04:06:57;;;;;;;6.90;4.10;;;;;;;;;;5046199;28;20509;-52
2021/12/14 04:09:25;;;;;;;6.60;4.37;;;;;;;;;;5034533;28;20481;-53
2021/12/14 04:11:51;;;;;;;11.33;4.40;;;;;;;;;;5040192;28;20431;-52
2021/12/14 04:14:21;;;;;;;7.20;3.90;;;;;;;;;;5024073;28;20438;-54
2021/12/14 04:16:49;;;;;;;5.40;2.90;;;;;;;;;;5042038;28;20438;-53
2021/12/14 04:19:21;;;;;;;6.70;3.90;;;;;;;;;;5017122;28;20431;-53
2021/12/14 04:21:47;;;;;;;8.57;4.73;;;;;;;;;;5039557;28;20483;-54
2021/12/14 04:24:18;;;;;;;7.97;5.03;;;;;;;;;;5028152;28;20438;-52
2021/12/14 04:26:46;;;;;;;6.63;4.30;;;;;;;;;;5040109;28;20496;-53
2021/12/14 04:29:12;;;;;;;5.60;3.80;;;;;;;;;;5022997;28;20486;-53
2021/12/14 04:31:38;;;;;;;6.67;3.87;;;;;;;;;;5054556;28;20435;-54
2021/12/14 04:34:04;;;;;;;4.80;3.70;;;;;;;;;;5036913;28;20443;-55
2021/12/14 04:36:32;;;;;;;10.53;4.77;;;;;;;;;;5043267;28;20433;-53
2021/12/14 04:39:20;;;;;;;5.87;4.07;;;;;;;;;;5036191;28;20446;-53
2021/12/14 04:53:16;;;;;;;8.67;5.07;;;;;;;;;;5030340;28;20482;-54
2021/12/14 04:55:43;;;;;;;6.47;4.73;;;;;;;;;;5037785;28;20427;-52
2021/12/14 04:58:15;;;;;;;8.50;5.20;;;;;;;;;;5035949;28;20526;-54
2021/12/14 05:00:43;;;;;;;7.07;4.80;;;;;;;;;;5038883;28;20423;-51
2021/12/14 05:03:28;;;;;;;5.37;4.03;;;;;;;;;;5037357;28;20431;-54
2021/12/14 05:06:09;;;;;;;6.30;4.70;;;;;;;;;;5040040;28;20434;-53
2021/12/14 05:11:08;;;;;;;6.70;4.43;;;;;;;;;;5038945;28;20867;-53
2021/12/14 05:13:36;;;;;;;7.53;3.93;;;;;;;;;;5027371;28;20464;-52
2021/12/14 05:16:03;;;;;;;6.70;3.97;;;;;;;;;;5041249;28;20473;-53
2021/12/14 05:18:29;;;;;;;7.03;4.30;;;;;;;;;;5033403;28;20450;-51
2021/12/14 05:21:04;;;;;;;5.10;3.50;;;;;;;;;;5038670;28;20426;-53
2021/12/14 05:23:36;;;;;;;4.80;3.50;;;;;;;;;;5033803;28;20478;-53
2021/12/14 05:26:21;;;;;;;5.20;3.23;;;;;;;;;;5033125;28;20443;-53
2021/12/14 05:28:54;;;;;;;4.50;3.43;;;;;;;;;;5044572;28;20466;-54
2021/12/14 05:31:32;;;;;;;6.10;3.27;;;;;;;;;;5030185;28;20446;-52
2021/12/14 05:34:02;;;;;;;6.90;3.93;;;;;;;;;;5041749;28;20441;-52
2021/12/14 05:36:28;;;;;;;3.93;3.30;;;;;;;;;;5037254;28;20431;-52
2021/12/14 05:39:04;;;;;;;6.70;3.27;;;;;;;;;;5031280;28;20772;-52
2021/12/14 05:44:23;;;;;;;5.50;3.27;;;;;;;;;;5040744;28;20438;-54
2021/12/14 05:46:51;;;;;;;5.50;3.33;;;;;;;;;;5023313;28;20446;-52
2021/12/14 05:49:22;;;;;;;5.90;3.47;;;;;;;;;;5043621;28;20473;-53
2021/12/14 05:51:49;;;;;;;4.90;3.13;;;;;;;;;;5021708;28;20431;-53
2021/12/14 05:54:22;;;;;;;6.60;4.03;;;;;;;;;;5045529;28;20445;-52
2021/12/14 05:56:49;;;;;;;5.83;4.03;;;;;;;;;;5028652;28;20987;-54
2021/12/14 05:59:19;;;;;;;6.57;3.53;;;;;;;;;;5044125;28;20462;-53
2021/12/14 06:01:45;;;;;;;7.67;5.30;;;;;;;;;;5024637;28;20532;-55
2021/12/14 06:04:11;;;;;;;6.47;4.07;;;;;;;;;;5039425;28;20485;-51
2021/12/14 06:06:41;;;;;;;5.07;4.23;;;;;;;;;;5021759;28;20443;-53
2021/12/14 06:09:10;;;;;;;5.87;3.30;;;;;;;;;;5026199;28;21066;-52
2021/12/14 06:11:57;;;;;;;7.20;3.67;;;;;;;;;;5035384;28;20426;-53
2021/12/14 06:14:25;;;;;;;7.47;4.77;;;;;;;;;;5038561;28;20462;-51
2021/12/14 06:17:05;;;;;;;6.67;4.43;;;;;;;;;;5035275;28;20430;-51
2021/12/14 06:19:41;;;;;;;5.67;3.50;;;;;;;;;;5020532;28;21047;-51
2021/12/14 06:22:08;;;;;;;6.80;4.97;;;;;;;;;;5038472;28;20549;-54
2021/12/14 06:24:45;;;;;;;8.10;5.10;;;;;;;;;;5048697;28;20557;-52
2021/12/14 06:27:14;;;;;;;8.23;5.70;;;;;;;;;;5040307;28;20442;-50
2021/12/14 06:29:41;;;;;;;6.50;4.80;;;;;;;;;;5033768;28;20479;-52
2021/12/14 06:32:08;;;;;;;10.63;6.73;;;;;;;;;;5044310;28;20474;-51
2021/12/14 06:34:34;;;;;;;7.37;4.80;;;;;;;;;;5017337;28;20447;-53
2021/12/14 06:37:04;;;;;;;6.97;4.70;;;;;;;;;;5024184;28;20525;-52
2021/12/14 06:39:32;;;;;;;6.50;4.70;;;;;;;;;;5042220;28;20485;-52
2021/12/14 06:42:07;;;;;;;5.70;3.80;;;;;;;;;;5042502;28;20434;-57
2021/12/14 06:44:33;;;;;;;6.30;4.00;;;;;;;;;;5043070;28;20466;-53
2021/12/14 06:47:01;;;;;;;6.90;4.17;;;;;;;;;;5041552;28;21436;-54
2021/12/14 06:49:28;;;;;;;7.60;4.77;;;;;;;;;;5031858;28;20823;-52
2021/12/14 06:51:56;;;;;;;7.00;4.63;;;;;;;;;;5019899;28;20442;-53
2021/12/14 06:54:25;;;;;;;6.83;4.23;;;;;;;;;;5045610;28;20450;-52
2021/12/14 06:56:57;;;;;;;9.73;5.90;;;;;;;;;;5053603;28;20967;-53
2021/12/14 06:59:23;;;;;;;6.07;4.73;;;;;;;;;;5042482;28;20438;-52
2021/12/14 07:01:54;;;;;;;8.83;5.30;;;;;;;;;;5032622;28;20513;-52
2021/12/14 07:04:24;;;;;;;7.77;4.67;;;;;;;;;;5042507;28;20503;-50
2021/12/14 07:06:54;;;;;;;7.80;4.80;;;;;;;;;;4994840;28;22167;-53
2021/12/14 07:09:22;;;;;;;8.67;5.37;;;;;;;;;;5046785;28;20482;-52
2021/12/14 07:12:06;;;;;;;10.20;5.60;;;;;;;;;;5041940;28;20442;-54
2021/12/14 07:14:38;;;;;;;7.03;4.80;;;;;;;;;;5038712;28;20994;-53
2021/12/14 07:17:41;;;;;;;6.17;4.77;;;;;;;;;;5043706;28;20534;-53
2021/12/14 07:20:14;;;;;;;7.80;4.37;;;;;;;;;;5033090;28;20480;-52
2021/12/14 07:22:46;;;;;;;7.20;4.10;;;;;;;;;;5028876;28;20474;-52
2021/12/14 07:25:12;;;;;;;16.37;7.63;;;;;;;;;;5049141;28;20426;-53
2021/12/14 07:27:51;;;;;;;7.23;4.63;;;;;;;;;;5031087;28;20617;-52
2021/12/14 07:30:20;;;;;;;5.17;4.40;;;;;;;;;;5038682;28;20984;-52
2021/12/14 07:32:52;;;;;;;8.90;5.37;;;;;;;;;;5021911;28;20447;-51
2021/12/14 07:35:26;;;;;;;6.10;4.10;;;;;;;;;;5043658;28;20434;-53
2021/12/14 07:37:52;;;;;;;8.20;4.97;;;;;;;;;;5032771;28;20450;-53
2021/12/14 07:40:19;;;;;;;8.37;5.20;;;;;;;;;;5034107;28;20828;-51
2021/12/14 07:42:45;;;;;;;8.90;5.30;;;;;;;;;;5046447;28;20447;-51
2021/12/14 07:45:11;;;;;;;9.73;5.93;;;;;;;;;;5016218;28;20425;-51
2021/12/14 07:47:37;;;;;;;10.27;6.60;;;;;;;;;;5039078;28;20468;-52
2021/12/14 07:50:03;;;;;;;10.00;5.63;;;;;;;;;;5021932;28;21187;-52
2021/12/14 07:52:35;;;;;;;10.90;6.00;;;;;;;;;;5036236;28;20475;-53
2021/12/14 07:55:05;;;;;;;9.47;5.80;;;;;;;;;;5028821;28;20500;-52
2021/12/14 07:57:33;;;;;;;8.37;5.00;;;;;;;;;;5041151;28;20516;-57
2021/12/14 08:00:14;;;;;;;8.73;4.10;;;;;;;;;;5045974;28;20469;-55
2021/12/14 08:02:47;;;;;;;13.73;4.20;;;;;;;;;;5042192;28;20422;-55
2021/12/14 08:05:23;;;;;;;5.03;3.87;;;;;;;;;;5048772;28;20440;-53
2021/12/14 08:07:49;;;;;;;5.80;4.23;;;;;;;;;;5039095;28;20431;-52
2021/12/14 08:10:45;;;;;;;5.00;3.83;;;;;;;;;;5019982;28;20481;-56
2021/12/14 08:13:16;;;;;;;6.17;4.50;;;;;;;;;;5051845;28;20948;-52
2021/12/14 08:15:50;;;;;;;6.57;3.90;;;;;;;;;;5012762;28;20434;-52
2021/12/14 08:18:21;;;;;;;5.53;4.40;;;;;;;;;;5036706;28;20435;-53
2021/12/14 08:20:53;;;;;;;6.27;4.20;;;;;;;;;;5049588;28;20463;-54
2021/12/14 08:23:21;;;;;;;5.03;4.50;;;;;;;;;;5060677;28;20810;-53
2021/12/14 08:25:47;;;;;;;8.43;5.10;;;;;;;;;;5018870;28;20493;-54
2021/12/14 08:28:13;;;;;;;7.70;5.00;;;;;;;;;;5035072;28;20459;-54
2021/12/14 08:30:43;;;;;;;6.80;4.33;;;;;;;;;;5020822;28;21053;-53
2021/12/14 08:33:19;;;;;;;5.43;3.90;;;;;;;;;;5040242;28;20550;-54
2021/12/14 08:35:45;;;;;;;5.50;4.07;;;;;;;;;;5022065;28;20453;-55
2021/12/14 08:38:11;;;;;;;4.90;3.80;;;;;;;;;;5040746;28;20431;-53
2021/12/14 08:40:39;;;;;;;5.20;4.20;;;;;;;;;;4990528;28;20533;-52
2021/12/14 08:43:13;;;;;;;5.27;4.40;;;;;;;;;;5038536;28;20434;-53
2021/12/14 08:45:42;;;;;;;4.63;3.80;;;;;;;;;;5019708;28;20450;-53
2021/12/14 08:48:17;;;;;;;4.47;3.90;;;;;;;;;;5054346;28;20445;-53
2021/12/14 08:51:13;;;;;;;8.00;4.17;;;;;;;;;;5025765;28;20478;-52
2021/12/14 08:53:40;;;;;;;10.90;4.73;;;;;;;;;;5034263;28;20439;-53
2021/12/14 08:56:06;;;;;;;5.87;5.27;;;;;;;;;;5035444;28;20433;-53
2021/12/14 08:58:33;;;;;;;6.43;4.57;;;;;;;;;;5039924;28;21324;-54
2021/12/14 09:01:02;;;;;;;7.77;5.17;;;;;;;;;;5012810;28;20507;-54
2021/12/14 09:03:34;;;;;;;10.90;4.87;;;;;;;;;;5049734;28;20434;-54
2021/12/14 09:06:05;;;;;;;7.60;4.57;;;;;;;;;;5018446;28;20850;-54
2021/12/14 09:08:31;;;;;;;5.50;4.10;;;;;;;;;;5043693;28;20467;-52
2021/12/14 09:10:58;;;;;;;5.87;4.20;;;;;;;;;;5014868;28;20548;-55
2021/12/14 09:13:24;;;;;;;5.33;3.67;;;;;;;;;;5035022;28;20517;-51
2021/12/14 09:15:52;;;;;;;10.43;4.97;;;;;;;;;;5033466;28;20435;-53
2021/12/14 09:18:18;;;;;;;5.70;4.87;;;;;;;;;;5034759;28;20799;-54
2021/12/14 09:20:47;;;;;;;7.37;3.90;;;;;;;;;;5017562;28;20430;-53
2021/12/14 09:23:15;;;;;;;6.33;4.30;;;;;;;;;;5049210;28;20436;-54
2021/12/14 09:25:45;;;;;;;5.83;4.20;;;;;;;;;;5016676;28;20473;-54
2021/12/14 09:28:17;;;;;;;5.10;3.70;;;;;;;;;;5032589;28;20528;-53
2021/12/14 09:31:13;;;;;;;5.93;3.80;;;;;;;;;;5036040;28;20470;-53
2021/12/14 09:33:59;;;;;;;4.50;3.80;;;;;;;;;;5031465;28;20525;-54
2021/12/14 09:36:28;;;;;;;4.33;3.30;;;;;;;;;;5020452;28;20477;-53
2021/12/14 09:38:56;;;;;;;6.10;3.80;;;;;;;;;;5034949;28;20449;-53
2021/12/14 09:41:24;;;;;;;4.07;3.30;;;;;;;;;;5013465;28;24316;-55
2021/12/14 09:43:50;;;;;;;4.00;3.53;;;;;;;;;;5035703;28;20470;-54
2021/12/14 09:46:17;;;;;;;6.17;3.20;;;;;;;;;;5045762;28;20438;-53
2021/12/14 09:48:45;;;;;;;4.80;3.30;;;;;;;;;;5036175;28;20446;-55
2021/12/14 09:51:14;;;;;;;5.20;3.27;;;;;;;;;;5043433;28;20457;-52
2021/12/14 09:53:49;;;;;;;4.03;3.00;;;;;;;;;;5027393;28;20430;-53
2021/12/14 09:56:16;;;;;;;4.13;3.50;;;;;;;;;;5036128;28;20434;-54
2021/12/14 09:58:58;;;;;;;3.87;3.03;;;;;;;;;;5028421;28;20473;-53
2021/12/14 10:01:29;;;;;;;8.03;3.17;;;;;;;;;;5040048;28;20445;-54
2021/12/14 10:03:56;;;;;;;5.60;2.73;;;;;;;;;;5019327;28;21895;-52
2021/12/14 10:06:24;;;;;;;4.60;2.40;;;;;;;;;;5055760;28;20829;-52
2021/12/14 10:08:52;;;;;;;4.47;2.63;;;;;;;;;;5032802;28;20427;-53
2021/12/14 10:11:36;;;;;;;3.30;2.50;;;;;;;;;;5044893;28;20461;-53
2021/12/14 10:14:23;;;;;;;2.73;2.47;;;;;;;;;;5025830;28;20447;-53
2021/12/14 10:16:54;;;;;;;2.70;2.40;;;;;;;;;;5034527;28;20458;-54
2021/12/14 10:19:28;;;;;;;2.67;2.30;;;;;;;;;;5031055;28;20435;-55
2021/12/14 10:21:56;;;;;;;2.87;2.00;;;;;;;;;;5037191;28;20485;-53
2021/12/14 10:24:39;;;;;;;2.13;1.93;;;;;;;;;;5042520;28;20895;-53
2021/12/14 10:27:07;;;;;;;2.80;2.60;;;;;;;;;;5042273;28;20518;-53
2021/12/14 10:29:33;;;;;;;2.47;1.90;;;;;;;;;;5014593;28;20485;-52
2021/12/14 10:32:08;;;;;;;2.60;2.00;;;;;;;;;;5038687;28;20442;-54
2021/12/14 10:34:41;;;;;;;2.37;1.80;;;;;;;;;;5024779;28;20437;-53
2021/12/14 10:37:17;;;;;;;3.00;2.00;;;;;;;;;;5038781;28;20474;-52
2021/12/14 10:45:14;;;;;;;2.73;2.00;;;;;;;;;;5024421;28;21014;-53
2021/12/14 10:47:41;;;;;;;2.47;2.13;;;;;;;;;;5041577;28;20458;-60
2021/12/14 10:50:09;;;;;;;2.90;2.33;;;;;;;;;;5042199;28;20474;-52
2021/12/14 10:52:40;;;;;;;3.00;2.23;;;;;;;;;;5045226;28;21012;-53
2021/12/14 10:55:26;;;;;;;3.37;2.50;;;;;;;;;;5037530;28;20446;-52
2021/12/14 10:57:53;;;;;;;3.10;2.77;;;;;;;;;;5045107;28;20488;-54
2021/12/14 11:00:32;;;;;;;2.50;2.30;;;;;;;;;;5039481;28;20426;-53
2021/12/14 11:03:04;;;;;;;3.80;2.50;;;;;;;;;;5045089;28;20476;-54
2021/12/14 11:05:30;;;;;;;2.97;2.40;;;;;;;;;;5032744;28;20632;-55
2021/12/14 11:08:00;;;;;;;2.80;2.50;;;;;;;;;;5044550;28;20432;-53
2021/12/14 11:10:34;;;;;;;3.57;2.60;;;;;;;;;;5048053;28;20467;-53
2021/12/14 11:13:01;;;;;;;9.50;3.13;;;;;;;;;;5026536;28;20443;-52
2021/12/14 11:15:29;;;;;;;2.40;2.20;;;;;;;;;;5021115;28;20519;-52
2021/12/14 11:18:09;;;;;;;3.43;2.20;;;;;;;;;;5042798;28;20462;-53
2021/12/14 11:20:38;;;;;;;3.97;2.30;;;;;;;;;;5034070;28;20450;-54
2021/12/14 11:23:09;;;;;;;7.53;3.27;;;;;;;;;;5042556;28;20446;-55
2021/12/14 11:25:42;;;;;;;9.43;2.67;;;;;;;;;;5029783;28;20556;-55
2021/12/14 11:28:09;;;;;;;3.33;3.00;;;;;;;;;;5044659;28;20525;-53
2021/12/14 11:30:37;;;;;;;5.60;2.90;;;;;;;;;;5037866;28;20510;-52
2021/12/14 11:33:05;;;;;;;3.40;2.13;;;;;;;;;;5042074;28;20581;-53
2021/12/14 11:35:31;;;;;;;3.50;2.47;;;;;;;;;;5025213;28;20452;-52
2021/12/14 11:37:59;;;;;;;2.33;2.10;;;;;;;;;;5044557;28;20431;-54
2021/12/14 11:40:26;;;;;;;4.93;2.17;;;;;;;;;;5036980;28;20468;-54
2021/12/14 11:42:54;;;;;;;5.13;2.03;;;;;;;;;;5058043;28;20442;-53
2021/12/14 11:45:34;;;;;;;3.27;2.70;;;;;;;;;;5032814;28;20457;-55
2021/12/14 11:48:05;;;;;;;2.80;2.50;;;;;;;;;;5038525;28;21934;-53
2021/12/14 11:50:34;;;;;;;2.67;2.20;;;;;;;;;;5025668;28;20474;-54
2021/12/14 11:53:06;;;;;;;2.43;2.23;;;;;;;;;;5042332;28;20447;-54
2021/12/14 11:55:37;;;;;;;2.97;2.67;;;;;;;;;;5030310;28;20435;-54
2021/12/14 11:58:04;;;;;;;3.23;2.70;;;;;;;;;;5047376;28;20820;-52
2021/12/14 12:00:42;;;;;;;3.20;2.83;;;;;;;;;;5044241;28;20457;-54
2021/12/14 12:03:29;;;;;;;7.37;2.80;;;;;;;;;;5039838;28;20438;-53
2021/12/14 12:06:14;;;;;;;4.10;2.80;;;;;;;;;;5037261;28;20451;-54
2021/12/14 12:11:42;;;;;;;2.40;2.20;;;;;;;;;;5045234;28;20438;-53
2021/12/14 12:14:29;;;;;;;3.70;2.47;;;;;;;;;;5043635;28;20434;-53
2021/12/14 12:16:59;;;;;;;4.33;3.40;;;;;;;;;;5014471;28;20480;-54
2021/12/14 12:19:26;;;;;;;4.90;3.10;;;;;;;;;;5046377;28;20658;-54
2021/12/14 12:21:55;;;;;;;3.90;3.37;;;;;;;;;;5044986;28;20426;-54
2021/12/14 12:24:45;;;;;;;3.30;2.93;;;;;;;;;;5059583;28;20450;-54
2021/12/14 12:27:15;;;;;;;2.80;2.57;;;;;;;;;;5037280;28;20495;-54
2021/12/14 12:29:44;;;;;;;3.63;2.57;;;;;;;;;;5043817;28;20470;-53
2021/12/14 12:32:19;;;;;;;3.10;2.77;;;;;;;;;;5017029;28;20952;-52
2021/12/14 12:34:47;;;;;;;4.00;2.50;;;;;;;;;;5040100;28;20422;-54
2021/12/14 12:37:17;;;;;;;4.07;3.07;;;;;;;;;;5036600;28;20426;-53
2021/12/14 12:39:50;;;;;;;7.40;3.90;;;;;;;;;;5023045;28;20983;-54
2021/12/14 12:42:16;;;;;;;4.20;3.80;;;;;;;;;;5011704;28;20446;-54
2021/12/14 12:44:43;;;;;;;5.10;4.60;;;;;;;;;;5035617;28;21096;-53
2021/12/14 12:47:24;;;;;;;5.50;4.70;;;;;;;;;;5032123;28;20935;-54
2021/12/14 12:49:57;;;;;;;6.27;4.63;;;;;;;;;;5040379;28;20490;-53
2021/12/14 12:52:31;;;;;;;5.27;4.60;;;;;;;;;;5042421;28;20959;-53
2021/12/14 12:55:05;;;;;;;6.00;5.40;;;;;;;;;;5040846;28;21180;-54
2021/12/14 12:57:55;;;;;;;5.73;4.80;;;;;;;;;;5020903;28;20504;-54
2021/12/14 13:00:24;;;;;;;5.97;4.67;;;;;;;;;;5039825;28;20427;-53
2021/12/14 13:03:00;;;;;;;5.87;5.27;;;;;;;;;;5036447;28;20427;-54
2021/12/14 13:05:45;;;;;;;7.03;5.80;;;;;;;;;;5042145;28;20788;-54
2021/12/14 13:08:14;;;;;;;6.27;5.40;;;;;;;;;;5035788;28;20449;-54
2021/12/14 13:10:50;;;;;;;5.90;5.30;;;;;;;;;;5038887;28;20696;-53
2021/12/14 13:13:17;;;;;;;9.17;6.20;;;;;;;;;;5032423;28;20592;-53
2021/12/14 13:15:51;;;;;;;7.33;6.53;;;;;;;;;;5043887;28;20525;-54
2021/12/14 13:18:27;;;;;;;12.40;6.23;;;;;;;;;;5031184;28;20436;-53
2021/12/14 13:20:55;;;;;;;6.50;5.90;;;;;;;;;;5039858;28;20473;-52
2021/12/14 13:23:23;;;;;;;7.67;6.87;;;;;;;;;;5030420;28;20529;-54
2021/12/14 13:25:49;;;;;;;6.93;5.50;;;;;;;;;;5042865;28;20499;-52
2021/12/14 13:28:15;;;;;;;10.87;7.07;;;;;;;;;;5031104;28;20457;-53
2021/12/14 13:30:41;;;;;;;8.47;7.37;;;;;;;;;;5043116;28;20527;-55
2021/12/14 13:33:26;;;;;;;10.57;8.30;;;;;;;;;;5023462;28;20598;-55
2021/12/14 13:35:53;;;;;;;9.23;6.67;;;;;;;;;;5033639;28;20434;-53
2021/12/14 13:38:19;;;;;;;7.93;6.90;;;;;;;;;;5017843;28;20446;-54
2021/12/14 13:40:45;;;;;;;10.07;7.80;;;;;;;;;;5043875;28;20439;-55
2021/12/14 13:43:35;;;;;;;9.93;7.10;;;;;;;;;;5027496;28;23504;-55
2021/12/14 13:46:06;;;;;;;10.07;8.27;;;;;;;;;;5039861;28;20781;-52
2021/12/14 13:48:34;;;;;;;11.23;8.53;;;;;;;;;;4990271;28;20904;-54
2021/12/14 13:51:11;;;;;;;10.07;7.63;;;;;;;;;;5039785;28;20967;-54
2021/12/14 13:53:47;;;;;;;8.93;8.00;;;;;;;;;;5034718;28;20434;-54
2021/12/14 13:56:17;;;;;;;8.30;7.10;;;;;;;;;;5041882;28;20442;-52
2021/12/14 13:58:43;;;;;;;10.93;7.80;;;;;;;;;;5019009;28;20526;-53
2021/12/14 14:01:16;;;;;;;10.57;7.13;;;;;;;;;;5040634;28;20500;-54
2021/12/14 14:03:43;;;;;;;15.77;8.17;;;;;;;;;;5025604;28;20558;-54
2021/12/14 14:06:12;;;;;;;10.60;8.20;;;;;;;;;;5039358;28;20491;-54
2021/12/14 14:08:48;;;;;;;12.23;7.87;;;;;;;;;;5020208;28;20450;-53
2021/12/14 14:11:27;;;;;;;10.20;6.93;;;;;;;;;;5040736;28;20509;-55
2021/12/14 14:13:59;;;;;;;10.30;7.53;;;;;;;;;;5024400;28;20445;-55
2021/12/14 14:16:35;;;;;;;11.00;7.57;;;;;;;;;;5055106;28;20450;-54
2021/12/14 14:19:04;;;;;;;10.77;8.20;;;;;;;;;;5022783;28;20433;-52
2021/12/14 14:21:34;;;;;;;15.00;7.53;;;;;;;;;;5042501;28;20434;-54
2021/12/14 14:24:01;;;;;;;18.83;8.87;;;;;;;;;;4971078;28;20569;-55
2021/12/14 14:26:36;;;;;;;18.40;9.40;;;;;;;;;;5042892;28;20520;-55
2021/12/14 14:29:06;;;;;;;10.63;8.00;;;;;;;;;;5026395;28;20453;-53
2021/12/14 14:31:42;;;;;;;15.60;9.60;;;;;;;;;;5042313;28;20434;-55
2021/12/14 14:34:20;;;;;;;12.87;9.00;;;;;;;;;;5018107;28;20434;-54
2021/12/14 14:36:46;;;;;;;14.03;8.67;;;;;;;;;;5040647;28;20478;-54
2021/12/14 14:39:16;;;;;;;13.63;8.80;;;;;;;;;;5011611;28;20960;-54
2021/12/14 14:41:44;;;;;;;17.03;10.63;;;;;;;;;;5046254;28;20417;-55
2021/12/14 14:44:15;;;;;;;17.73;10.70;;;;;;;;;;5034546;28;20454;-54
2021/12/14 14:46:44;;;;;;;14.80;9.93;;;;;;;;;;5047429;28;20419;-54
2021/12/14 14:49:12;;;;;;;17.60;10.40;;;;;;;;;;5021427;28;20937;-56
2021/12/14 14:51:53;;;;;;;14.90;10.50;;;;;;;;;;5041104;28;20438;-55
2021/12/14 14:54:34;;;;;;;16.37;9.73;;;;;;;;;;4996999;28;20540;-53
2021/12/14 14:57:13;;;;;;;16.47;9.40;;;;;;;;;;5044820;28;20435;-56
2021/12/14 14:59:45;;;;;;;16.13;9.83;;;;;;;;;;5017656;28;20510;-53
2021/12/14 15:02:11;;;;;;;15.90;9.20;;;;;;;;;;5039993;28;20488;-53
2021/12/14 15:04:55;;;;;;;16.43;10.67;;;;;;;;;;5021287;28;20438;-55
2021/12/14 15:07:21;;;;;;;17.47;9.87;;;;;;;;;;5040100;28;20462;-54
2021/12/14 15:09:47;;;;;;;14.40;8.70;;;;;;;;;;5019381;28;20569;-54
2021/12/14 15:12:20;;;;;;;28.20;10.93;;;;;;;;;;5040948;28;20446;-53
2021/12/14 15:14:46;;;;;;;25.10;11.03;;;;;;;;;;5011246;28;20446;-54
2021/12/14 15:17:30;;;;;;;15.93;10.27;;;;;;;;;;5022113;28;21356;-54
2021/12/14 15:19:59;;;;;;;17.13;10.40;;;;;;;;;;5007259;28;21615;-54
2021/12/14 15:22:27;;;;;;;16.27;9.70;;;;;;;;;;5034816;28;20458;-55
2021/12/14 15:25:10;;;;;;;18.03;9.47;;;;;;;;;;5028742;28;20451;-54
2021/12/14 15:27:47;;;;;;;18.03;9.47;;;;;;;;;;5020732;28;21445;-54
2021/12/14 15:30:20;;;;;;;18.17;10.60;;;;;;;;;;5001421;28;20646;-55
2021/12/14 15:32:51;;;;;;;20.30;10.40;;;;;;;;;;5033993;28;20461;-54
2021/12/14 15:35:19;;;;;;;19.30;9.20;;;;;;;;;;5014613;28;20426;-55